sensor_id;sensor_type;location;lat;lon;timestamp;temperature;humidity
73141;SHT31;61339;50.558;4.696;2023-08-07T00:02:20;11.33;89.86
73141;SHT31;61339;50.558;4.696;2023-08-07T00:04:46;11.32;89.91
73141;SHT31;61339;50.558;4.696;2023-08-07T00:07:11;11.26;89.99
73141;SHT31;61339;50.558;4.696;2023-08-07T00:09:36;11.28;90.06
73141;SHT31;61339;50.558;4.696;2023-08-07T00:12:02;11.24;90.03
73141;SHT31;61339;50.558;4.696;2023-08-07T00:14:28;11.21;90.16
73141;SHT31;61339;50.558;4.696;2023-08-07T00:16:54;11.22;90.02
73141;SHT31;61339;50.558;4.696;2023-08-07T00:19:19;11.18;90.29
73141;SHT31;61339;50.558;4.696;2023-08-07T00:21:44;11.21;90.16
73141;SHT31;61339;50.558;4.696;2023-08-07T00:24:10;11.15;90.22
73141;SHT31;61339;50.558;4.696;2023-08-07T00:26:35;11.14;90.06
73141;SHT31;61339;50.558;4.696;2023-08-07T00:29:01;11.10;90.25
73141;SHT31;61339;50.558;4.696;2023-08-07T00:31:26;11.04;90.44
73141;SHT31;61339;50.558;4.696;2023-08-07T00:33:56;11.03;90.62
73141;SHT31;61339;50.558;4.696;2023-08-07T00:36:21;11.08;90.37
73141;SHT31;61339;50.558;4.696;2023-08-07T00:38:47;11.04;90.47
73141;SHT31;61339;50.558;4.696;2023-08-07T00:41:12;11.07;90.48
73141;SHT31;61339;50.558;4.696;2023-08-07T00:43:37;11.04;90.53
73141;SHT31;61339;50.558;4.696;2023-08-07T00:46:03;11.00;90.64
73141;SHT31;61339;50.558;4.696;2023-08-07T00:48:29;10.97;90.76
73141;SHT31;61339;50.558;4.696;2023-08-07T00:50:55;10.95;90.85
73141;SHT31;61339;50.558;4.696;2023-08-07T00:53:21;10.94;90.85
73141;SHT31;61339;50.558;4.696;2023-08-07T00:55:46;10.95;90.81
73141;SHT31;61339;50.558;4.696;2023-08-07T00:58:13;10.95;90.99
73141;SHT31;61339;50.558;4.696;2023-08-07T01:00:38;10.98;91.06
73141;SHT31;61339;50.558;4.696;2023-08-07T01:03:07;11.00;90.98
73141;SHT31;61339;50.558;4.696;2023-08-07T01:05:33;11.04;90.92
73141;SHT31;61339;50.558;4.696;2023-08-07T01:07:59;11.10;90.57
73141;SHT31;61339;50.558;4.696;2023-08-07T01:10:44;11.07;90.67
73141;SHT31;61339;50.558;4.696;2023-08-07T01:13:19;11.04;90.61
73141;SHT31;61339;50.558;4.696;2023-08-07T01:15:46;11.08;90.38
73141;SHT31;61339;50.558;4.696;2023-08-07T01:18:13;11.01;90.51
73141;SHT31;61339;50.558;4.696;2023-08-07T01:20:38;10.98;90.69
73141;SHT31;61339;50.558;4.696;2023-08-07T01:23:04;10.91;90.88
73141;SHT31;61339;50.558;4.696;2023-08-07T01:25:30;10.93;90.88
73141;SHT31;61339;50.558;4.696;2023-08-07T01:28:21;10.94;91.08
73141;SHT31;61339;50.558;4.696;2023-08-07T01:30:55;11.00;90.83
73141;SHT31;61339;50.558;4.696;2023-08-07T01:33:31;11.00;90.54
73141;SHT31;61339;50.558;4.696;2023-08-07T01:35:58;10.94;90.61
73141;SHT31;61339;50.558;4.696;2023-08-07T01:38:27;10.90;90.67
73141;SHT31;61339;50.558;4.696;2023-08-07T01:40:53;10.90;90.81
73141;SHT31;61339;50.558;4.696;2023-08-07T01:43:19;10.87;90.90
73141;SHT31;61339;50.558;4.696;2023-08-07T01:45:45;10.84;90.92
73141;SHT31;61339;50.558;4.696;2023-08-07T01:48:11;10.81;91.01
73141;SHT31;61339;50.558;4.696;2023-08-07T01:50:38;10.77;91.05
73141;SHT31;61339;50.558;4.696;2023-08-07T01:53:04;10.77;91.09
73141;SHT31;61339;50.558;4.696;2023-08-07T01:55:29;10.71;91.19
73141;SHT31;61339;50.558;4.696;2023-08-07T01:57:55;10.73;91.24
73141;SHT31;61339;50.558;4.696;2023-08-07T02:00:20;10.71;91.31
73141;SHT31;61339;50.558;4.696;2023-08-07T02:02:46;10.70;91.36
73141;SHT31;61339;50.558;4.696;2023-08-07T02:05:12;10.68;91.42
73141;SHT31;61339;50.558;4.696;2023-08-07T02:07:37;10.71;91.34
73141;SHT31;61339;50.558;4.696;2023-08-07T02:10:03;10.73;91.24
73141;SHT31;61339;50.558;4.696;2023-08-07T02:12:29;10.68;91.35
73141;SHT31;61339;50.558;4.696;2023-08-07T02:14:57;10.65;91.32
73141;SHT31;61339;50.558;4.696;2023-08-07T02:17:24;10.64;91.36
73141;SHT31;61339;50.558;4.696;2023-08-07T02:19:50;10.60;91.40
73141;SHT31;61339;50.558;4.696;2023-08-07T02:22:16;10.60;91.40
73141;SHT31;61339;50.558;4.696;2023-08-07T02:24:41;10.57;91.41
73141;SHT31;61339;50.558;4.696;2023-08-07T02:27:07;10.54;91.36
73141;SHT31;61339;50.558;4.696;2023-08-07T02:29:32;10.53;91.30
73141;SHT31;61339;50.558;4.696;2023-08-07T02:32:01;10.56;91.04
73141;SHT31;61339;50.558;4.696;2023-08-07T02:34:27;10.56;90.92
73141;SHT31;61339;50.558;4.696;2023-08-07T02:36:52;10.54;90.89
73141;SHT31;61339;50.558;4.696;2023-08-07T02:39:17;10.57;90.69
73141;SHT31;61339;50.558;4.696;2023-08-07T02:41:43;10.56;90.53
73141;SHT31;61339;50.558;4.696;2023-08-07T02:44:08;10.59;90.18
73141;SHT31;61339;50.558;4.696;2023-08-07T02:46:34;10.54;90.17
73141;SHT31;61339;50.558;4.696;2023-08-07T02:49:01;10.53;90.08
73141;SHT31;61339;50.558;4.696;2023-08-07T02:51:27;10.53;89.92
73141;SHT31;61339;50.558;4.696;2023-08-07T02:53:52;10.53;89.93
73141;SHT31;61339;50.558;4.696;2023-08-07T02:56:17;10.53;89.81
73141;SHT31;61339;50.558;4.696;2023-08-07T02:58:43;10.53;89.81
73141;SHT31;61339;50.558;4.696;2023-08-07T03:01:09;10.52;89.70
73141;SHT31;61339;50.558;4.696;2023-08-07T03:03:34;10.47;89.98
73141;SHT31;61339;50.558;4.696;2023-08-07T03:06:00;10.49;89.84
73141;SHT31;61339;50.558;4.696;2023-08-07T03:08:25;10.44;90.12
73141;SHT31;61339;50.558;4.696;2023-08-07T03:10:53;10.42;90.27
73141;SHT31;61339;50.558;4.696;2023-08-07T03:13:19;10.44;90.21
73141;SHT31;61339;50.558;4.696;2023-08-07T03:15:44;10.44;90.07
73141;SHT31;61339;50.558;4.696;2023-08-07T03:18:10;10.44;90.17
73141;SHT31;61339;50.558;4.696;2023-08-07T03:20:36;10.42;90.23
73141;SHT31;61339;50.558;4.696;2023-08-07T03:23:02;10.37;90.33
73141;SHT31;61339;50.558;4.696;2023-08-07T03:25:27;10.40;90.36
73141;SHT31;61339;50.558;4.696;2023-08-07T03:27:53;10.37;90.44
73141;SHT31;61339;50.558;4.696;2023-08-07T03:30:18;10.44;90.52
73141;SHT31;61339;50.558;4.696;2023-08-07T03:32:44;10.50;90.27
73141;SHT31;61339;50.558;4.696;2023-08-07T03:35:09;10.61;89.89
73141;SHT31;61339;50.558;4.696;2023-08-07T03:37:34;10.65;89.60
73141;SHT31;61339;50.558;4.696;2023-08-07T03:40:00;10.75;89.23
73141;SHT31;61339;50.558;4.696;2023-08-07T03:42:25;10.71;89.39
73141;SHT31;61339;50.558;4.696;2023-08-07T03:44:51;10.74;89.17
73141;SHT31;61339;50.558;4.696;2023-08-07T03:47:16;10.73;89.28
73141;SHT31;61339;50.558;4.696;2023-08-07T03:49:41;10.67;89.43
73141;SHT31;61339;50.558;4.696;2023-08-07T03:52:07;10.63;89.55
73141;SHT31;61339;50.558;4.696;2023-08-07T03:54:32;10.59;89.65
73141;SHT31;61339;50.558;4.696;2023-08-07T03:56:58;10.54;89.95
73141;SHT31;61339;50.558;4.696;2023-08-07T03:59:23;10.53;89.95
73141;SHT31;61339;50.558;4.696;2023-08-07T04:01:48;10.54;89.93
73141;SHT31;61339;50.558;4.696;2023-08-07T04:04:14;10.49;90.15
73141;SHT31;61339;50.558;4.696;2023-08-07T04:06:39;10.49;90.31
73141;SHT31;61339;50.558;4.696;2023-08-07T04:09:05;10.43;90.48
73141;SHT31;61339;50.558;4.696;2023-08-07T04:11:30;10.40;90.73
73141;SHT31;61339;50.558;4.696;2023-08-07T04:13:56;10.35;90.96
73141;SHT31;61339;50.558;4.696;2023-08-07T04:16:21;10.33;91.03
73141;SHT31;61339;50.558;4.696;2023-08-07T04:18:47;10.32;91.24
73141;SHT31;61339;50.558;4.696;2023-08-07T04:21:12;10.28;91.31
73141;SHT31;61339;50.558;4.696;2023-08-07T04:23:38;10.29;91.34
73141;SHT31;61339;50.558;4.696;2023-08-07T04:26:03;10.30;91.38
73141;SHT31;61339;50.558;4.696;2023-08-07T04:28:29;10.25;91.45
73141;SHT31;61339;50.558;4.696;2023-08-07T04:30:54;10.29;91.44
73141;SHT31;61339;50.558;4.696;2023-08-07T04:33:20;10.28;91.45
73141;SHT31;61339;50.558;4.696;2023-08-07T04:35:46;10.29;91.39
73141;SHT31;61339;50.558;4.696;2023-08-07T04:38:15;10.28;91.49
73141;SHT31;61339;50.558;4.696;2023-08-07T04:40:48;10.28;91.47
73141;SHT31;61339;50.558;4.696;2023-08-07T04:43:18;10.28;91.53
73141;SHT31;61339;50.558;4.696;2023-08-07T04:45:47;10.26;91.56
73141;SHT31;61339;50.558;4.696;2023-08-07T04:48:13;10.25;91.59
73141;SHT31;61339;50.558;4.696;2023-08-07T04:50:39;10.29;91.58
73141;SHT31;61339;50.558;4.696;2023-08-07T04:53:05;10.29;91.49
73141;SHT31;61339;50.558;4.696;2023-08-07T04:55:31;10.29;91.57
73141;SHT31;61339;50.558;4.696;2023-08-07T04:57:57;10.33;91.54
73141;SHT31;61339;50.558;4.696;2023-08-07T05:00:23;10.33;91.59
73141;SHT31;61339;50.558;4.696;2023-08-07T05:02:48;10.35;91.62
73141;SHT31;61339;50.558;4.696;2023-08-07T05:05:14;10.42;91.56
73141;SHT31;61339;50.558;4.696;2023-08-07T05:07:40;10.42;91.56
73141;SHT31;61339;50.558;4.696;2023-08-07T05:10:07;10.47;91.46
73141;SHT31;61339;50.558;4.696;2023-08-07T05:12:33;10.49;91.47
73141;SHT31;61339;50.558;4.696;2023-08-07T05:14:58;10.53;91.43
73141;SHT31;61339;50.558;4.696;2023-08-07T05:17:23;10.60;91.39
73141;SHT31;61339;50.558;4.696;2023-08-07T05:19:49;10.74;91.19
73141;SHT31;61339;50.558;4.696;2023-08-07T05:22:15;10.87;90.83
73141;SHT31;61339;50.558;4.696;2023-08-07T05:24:40;11.03;90.42
73141;SHT31;61339;50.558;4.696;2023-08-07T05:27:09;11.15;90.04
73141;SHT31;61339;50.558;4.696;2023-08-07T05:29:35;11.28;89.57
73141;SHT31;61339;50.558;4.696;2023-08-07T05:32:11;11.39;89.26
73141;SHT31;61339;50.558;4.696;2023-08-07T05:34:37;11.43;89.10
73141;SHT31;61339;50.558;4.696;2023-08-07T05:37:02;11.39;89.27
73141;SHT31;61339;50.558;4.696;2023-08-07T05:39:28;11.51;88.98
73141;SHT31;61339;50.558;4.696;2023-08-07T05:41:53;11.67;88.50
73141;SHT31;61339;50.558;4.696;2023-08-07T05:44:20;11.84;87.96
73141;SHT31;61339;50.558;4.696;2023-08-07T05:46:45;12.05;87.33
73141;SHT31;61339;50.558;4.696;2023-08-07T05:49:10;12.25;86.92
73141;SHT31;61339;50.558;4.696;2023-08-07T05:51:36;12.46;86.11
73141;SHT31;61339;50.558;4.696;2023-08-07T05:54:01;12.69;85.54
73141;SHT31;61339;50.558;4.696;2023-08-07T05:56:27;12.89;84.74
73141;SHT31;61339;50.558;4.696;2023-08-07T05:58:53;13.13;84.18
73141;SHT31;61339;50.558;4.696;2023-08-07T06:01:18;13.36;83.53
73141;SHT31;61339;50.558;4.696;2023-08-07T06:03:43;13.57;82.66
73141;SHT31;61339;50.558;4.696;2023-08-07T06:06:09;13.83;82.13
73141;SHT31;61339;50.558;4.696;2023-08-07T06:08:34;14.06;81.26
73141;SHT31;61339;50.558;4.696;2023-08-07T06:11:00;14.36;80.50
73141;SHT31;61339;50.558;4.696;2023-08-07T06:13:30;14.60;79.75
73141;SHT31;61339;50.558;4.696;2023-08-07T06:15:55;14.84;78.33
73141;SHT31;61339;50.558;4.696;2023-08-07T06:18:21;15.10;77.52
73141;SHT31;61339;50.558;4.696;2023-08-07T06:20:47;15.36;76.75
73141;SHT31;61339;50.558;4.696;2023-08-07T06:23:12;15.60;75.77
73141;SHT31;61339;50.558;4.696;2023-08-07T06:25:38;15.89;75.19
73141;SHT31;61339;50.558;4.696;2023-08-07T06:28:03;16.16;74.13
73141;SHT31;61339;50.558;4.696;2023-08-07T06:30:31;16.44;73.43
73141;SHT31;61339;50.558;4.696;2023-08-07T06:32:56;16.69;72.06
73141;SHT31;61339;50.558;4.696;2023-08-07T06:35:22;16.92;71.35
73141;SHT31;61339;50.558;4.696;2023-08-07T06:37:48;17.16;70.45
73141;SHT31;61339;50.558;4.696;2023-08-07T06:40:13;17.34;69.76
73141;SHT31;61339;50.558;4.696;2023-08-07T06:42:39;17.58;69.14
73141;SHT31;61339;50.558;4.696;2023-08-07T06:45:05;17.88;68.30
73141;SHT31;61339;50.558;4.696;2023-08-07T06:47:31;18.12;67.63
73141;SHT31;61339;50.558;4.696;2023-08-07T06:49:57;18.42;66.53
73141;SHT31;61339;50.558;4.696;2023-08-07T06:52:22;18.70;65.48
73141;SHT31;61339;50.558;4.696;2023-08-07T06:54:48;18.91;64.31
73141;SHT31;61339;50.558;4.696;2023-08-07T06:57:14;18.90;63.81
73141;SHT31;61339;50.558;4.696;2023-08-07T06:59:39;19.01;63.85
73141;SHT31;61339;50.558;4.696;2023-08-07T07:02:05;19.31;63.29
73141;SHT31;61339;50.558;4.696;2023-08-07T07:04:31;19.62;62.13
73141;SHT31;61339;50.558;4.696;2023-08-07T07:06:56;19.82;61.36
73141;SHT31;61339;50.558;4.696;2023-08-07T07:09:22;20.10;60.75
73141;SHT31;61339;50.558;4.696;2023-08-07T07:11:47;20.03;60.35
73141;SHT31;61339;50.558;4.696;2023-08-07T07:14:13;20.38;59.53
73141;SHT31;61339;50.558;4.696;2023-08-07T07:16:38;20.59;58.28
73141;SHT31;61339;50.558;4.696;2023-08-07T07:19:04;20.96;57.80
73141;SHT31;61339;50.558;4.696;2023-08-07T07:21:29;21.25;57.15
73141;SHT31;61339;50.558;4.696;2023-08-07T07:23:55;21.57;56.49
73141;SHT31;61339;50.558;4.696;2023-08-07T07:26:20;21.80;55.74
73141;SHT31;61339;50.558;4.696;2023-08-07T07:28:45;21.95;54.88
73141;SHT31;61339;50.558;4.696;2023-08-07T07:31:11;22.06;53.74
73141;SHT31;61339;50.558;4.696;2023-08-07T07:33:37;22.25;53.95
73141;SHT31;61339;50.558;4.696;2023-08-07T07:36:05;22.31;53.76
73141;SHT31;61339;50.558;4.696;2023-08-07T07:38:31;22.76;52.42
73141;SHT31;61339;50.558;4.696;2023-08-07T07:40:57;22.99;51.94
73141;SHT31;61339;50.558;4.696;2023-08-07T07:43:23;23.04;51.47
73141;SHT31;61339;50.558;4.696;2023-08-07T07:45:49;22.93;52.02
73141;SHT31;61339;50.558;4.696;2023-08-07T07:48:14;22.79;52.10
73141;SHT31;61339;50.558;4.696;2023-08-07T07:50:40;22.08;53.98
73141;SHT31;61339;50.558;4.696;2023-08-07T07:53:06;21.95;54.37
73141;SHT31;61339;50.558;4.696;2023-08-07T07:55:31;22.09;53.22
73141;SHT31;61339;50.558;4.696;2023-08-07T07:57:57;21.87;52.91
73141;SHT31;61339;50.558;4.696;2023-08-07T08:00:23;21.71;52.89
73141;SHT31;61339;50.558;4.696;2023-08-07T08:02:52;21.42;53.64
73141;SHT31;61339;50.558;4.696;2023-08-07T08:05:18;21.91;51.61
73141;SHT31;61339;50.558;4.696;2023-08-07T08:07:44;21.97;52.00
73141;SHT31;61339;50.558;4.696;2023-08-07T08:10:09;22.94;49.76
73141;SHT31;61339;50.558;4.696;2023-08-07T08:12:35;23.18;49.64
73141;SHT31;61339;50.558;4.696;2023-08-07T08:15:02;23.93;46.41
73141;SHT31;61339;50.558;4.696;2023-08-07T08:17:28;23.76;46.38
73141;SHT31;61339;50.558;4.696;2023-08-07T08:19:54;22.84;48.96
73141;SHT31;61339;50.558;4.696;2023-08-07T08:22:19;22.89;48.87
73141;SHT31;61339;50.558;4.696;2023-08-07T08:24:45;23.90;44.74
73141;SHT31;61339;50.558;4.696;2023-08-07T08:27:10;24.49;43.31
73141;SHT31;61339;50.558;4.696;2023-08-07T08:29:36;24.41;44.15
73141;SHT31;61339;50.558;4.696;2023-08-07T08:32:01;24.99;43.01
73141;SHT31;61339;50.558;4.696;2023-08-07T08:34:27;25.53;42.14
73141;SHT31;61339;50.558;4.696;2023-08-07T08:36:52;26.11;40.43
73141;SHT31;61339;50.558;4.696;2023-08-07T08:39:18;25.16;41.01
73141;SHT31;61339;50.558;4.696;2023-08-07T08:41:46;25.62;40.82
73141;SHT31;61339;50.558;4.696;2023-08-07T08:44:13;25.59;40.94
73141;SHT31;61339;50.558;4.696;2023-08-07T08:46:42;24.98;42.98
73141;SHT31;61339;50.558;4.696;2023-08-07T08:49:08;25.32;41.73
73141;SHT31;61339;50.558;4.696;2023-08-07T08:51:36;25.56;40.29
73141;SHT31;61339;50.558;4.696;2023-08-07T08:54:02;25.26;40.62
73141;SHT31;61339;50.558;4.696;2023-08-07T08:56:30;26.07;39.05
73141;SHT31;61339;50.558;4.696;2023-08-07T08:58:55;26.72;38.00
73141;SHT31;61339;50.558;4.696;2023-08-07T09:01:21;27.61;35.96
73141;SHT31;61339;50.558;4.696;2023-08-07T09:03:47;27.67;36.57
73141;SHT31;61339;50.558;4.696;2023-08-07T09:06:13;27.17;36.74
73141;SHT31;61339;50.558;4.696;2023-08-07T09:08:43;26.28;37.87
73141;SHT31;61339;50.558;4.696;2023-08-07T09:11:10;25.33;39.74
73141;SHT31;61339;50.558;4.696;2023-08-07T09:13:36;25.25;41.05
73141;SHT31;61339;50.558;4.696;2023-08-07T09:16:07;25.84;39.53
73141;SHT31;61339;50.558;4.696;2023-08-07T09:18:37;26.97;36.17
73141;SHT31;61339;50.558;4.696;2023-08-07T09:21:03;27.40;35.61
73141;SHT31;61339;50.558;4.696;2023-08-07T09:23:28;25.59;38.03
73141;SHT31;61339;50.558;4.696;2023-08-07T09:26:04;23.98;41.93
73141;SHT31;61339;50.558;4.696;2023-08-07T09:28:32;22.97;44.49
73141;SHT31;61339;50.558;4.696;2023-08-07T09:30:58;23.25;44.35
73141;SHT31;61339;50.558;4.696;2023-08-07T09:33:25;22.69;43.97
73141;SHT31;61339;50.558;4.696;2023-08-07T09:35:51;25.19;39.24
73141;SHT31;61339;50.558;4.696;2023-08-07T09:38:22;27.37;36.42
73141;SHT31;61339;50.558;4.696;2023-08-07T09:40:48;29.03;34.90
73141;SHT31;61339;50.558;4.696;2023-08-07T09:43:21;28.29;35.11
73141;SHT31;61339;50.558;4.696;2023-08-07T09:45:48;26.78;36.71
73141;SHT31;61339;50.558;4.696;2023-08-07T09:48:20;26.28;37.94
73141;SHT31;61339;50.558;4.696;2023-08-07T09:50:47;25.33;39.23
73141;SHT31;61339;50.558;4.696;2023-08-07T09:53:12;24.99;39.66
73141;SHT31;61339;50.558;4.696;2023-08-07T09:55:38;24.33;41.23
73141;SHT31;61339;50.558;4.696;2023-08-07T09:58:07;23.75;42.89
73141;SHT31;61339;50.558;4.696;2023-08-07T10:00:34;23.44;43.52
73141;SHT31;61339;50.558;4.696;2023-08-07T10:03:01;22.93;45.12
73141;SHT31;61339;50.558;4.696;2023-08-07T10:05:27;23.81;43.82
73141;SHT31;61339;50.558;4.696;2023-08-07T10:07:53;25.38;41.28
73141;SHT31;61339;50.558;4.696;2023-08-07T10:10:20;26.55;38.50
73141;SHT31;61339;50.558;4.696;2023-08-07T10:12:46;27.44;37.19
73141;SHT31;61339;50.558;4.696;2023-08-07T10:15:14;26.82;36.75
73141;SHT31;61339;50.558;4.696;2023-08-07T10:17:40;26.97;37.06
73141;SHT31;61339;50.558;4.696;2023-08-07T10:20:06;26.42;37.79
73141;SHT31;61339;50.558;4.696;2023-08-07T10:22:34;25.73;38.86
73141;SHT31;61339;50.558;4.696;2023-08-07T10:25:02;25.60;39.05
73141;SHT31;61339;50.558;4.696;2023-08-07T10:27:30;26.49;37.13
73141;SHT31;61339;50.558;4.696;2023-08-07T10:29:58;25.77;37.67
73141;SHT31;61339;50.558;4.696;2023-08-07T10:32:25;25.09;38.77
73141;SHT31;61339;50.558;4.696;2023-08-07T10:34:52;24.24;40.56
73141;SHT31;61339;50.558;4.696;2023-08-07T10:40:09;23.78;42.92
73141;SHT31;61339;50.558;4.696;2023-08-07T10:42:57;24.34;41.52
73141;SHT31;61339;50.558;4.696;2023-08-07T10:45:24;24.29;40.78
73141;SHT31;61339;50.558;4.696;2023-08-07T10:48:05;24.68;39.63
73141;SHT31;61339;50.558;4.696;2023-08-07T10:50:33;24.88;40.05
73141;SHT31;61339;50.558;4.696;2023-08-07T10:53:03;26.44;37.20
73141;SHT31;61339;50.558;4.696;2023-08-07T10:55:43;27.68;34.88
73141;SHT31;61339;50.558;4.696;2023-08-07T10:58:23;25.83;37.97
73141;SHT31;61339;50.558;4.696;2023-08-07T11:01:15;25.22;39.74
73141;SHT31;61339;50.558;4.696;2023-08-07T11:03:35;24.60;41.58
73141;SHT31;61339;50.558;4.696;2023-08-07T11:06:01;24.41;42.40
73141;SHT31;61339;50.558;4.696;2023-08-07T11:08:27;26.09;39.59
73141;SHT31;61339;50.558;4.696;2023-08-07T11:10:53;28.74;34.92
73141;SHT31;61339;50.558;4.696;2023-08-07T11:13:20;27.84;36.61
73141;SHT31;61339;50.558;4.696;2023-08-07T11:15:46;29.14;33.42
73141;SHT31;61339;50.558;4.696;2023-08-07T11:18:12;28.27;34.71
73141;SHT31;61339;50.558;4.696;2023-08-07T11:20:37;26.82;36.97
73141;SHT31;61339;50.558;4.696;2023-08-07T11:23:04;26.96;37.67
73141;SHT31;61339;50.558;4.696;2023-08-07T11:25:30;29.10;34.70
73141;SHT31;61339;50.558;4.696;2023-08-07T11:27:55;29.21;34.49
73141;SHT31;61339;50.558;4.696;2023-08-07T11:30:21;29.56;33.58
73141;SHT31;61339;50.558;4.696;2023-08-07T11:32:46;30.45;31.09
73141;SHT31;61339;50.558;4.696;2023-08-07T11:35:12;31.73;29.51
73141;SHT31;61339;50.558;4.696;2023-08-07T11:37:45;32.72;28.68
73141;SHT31;61339;50.558;4.696;2023-08-07T11:40:11;31.97;28.52
73141;SHT31;61339;50.558;4.696;2023-08-07T11:42:37;30.78;30.52
73141;SHT31;61339;50.558;4.696;2023-08-07T11:45:03;30.00;32.09
73141;SHT31;61339;50.558;4.696;2023-08-07T11:47:28;28.61;33.47
73141;SHT31;61339;50.558;4.696;2023-08-07T11:49:54;27.58;35.03
73141;SHT31;61339;50.558;4.696;2023-08-07T11:52:20;26.68;36.30
73141;SHT31;61339;50.558;4.696;2023-08-07T11:54:47;25.88;38.21
73141;SHT31;61339;50.558;4.696;2023-08-07T11:57:19;27.89;35.12
73141;SHT31;61339;50.558;4.696;2023-08-07T11:59:50;30.41;32.05
73141;SHT31;61339;50.558;4.696;2023-08-07T12:02:15;29.45;32.71
73141;SHT31;61339;50.558;4.696;2023-08-07T12:04:41;27.23;35.77
73141;SHT31;61339;50.558;4.696;2023-08-07T12:07:07;26.47;37.48
73141;SHT31;61339;50.558;4.696;2023-08-07T12:09:36;26.51;35.23
73141;SHT31;61339;50.558;4.696;2023-08-07T12:12:02;29.67;31.12
73141;SHT31;61339;50.558;4.696;2023-08-07T12:14:31;29.83;31.61
73141;SHT31;61339;50.558;4.696;2023-08-07T12:16:57;30.20;30.72
73141;SHT31;61339;50.558;4.696;2023-08-07T12:19:22;30.24;31.77
73141;SHT31;61339;50.558;4.696;2023-08-07T12:21:48;29.11;33.21
73141;SHT31;61339;50.558;4.696;2023-08-07T12:24:13;28.06;34.59
73141;SHT31;61339;50.558;4.696;2023-08-07T12:26:39;27.27;36.22
73141;SHT31;61339;50.558;4.696;2023-08-07T12:29:04;29.03;33.23
73141;SHT31;61339;50.558;4.696;2023-08-07T12:31:29;31.80;29.32
73141;SHT31;61339;50.558;4.696;2023-08-07T12:33:55;33.81;27.25
73141;SHT31;61339;50.558;4.696;2023-08-07T12:36:20;35.37;25.63
73141;SHT31;61339;50.558;4.696;2023-08-07T12:38:46;35.55;24.92
73141;SHT31;61339;50.558;4.696;2023-08-07T12:41:12;34.06;26.59
73141;SHT31;61339;50.558;4.696;2023-08-07T12:43:39;31.44;29.24
73141;SHT31;61339;50.558;4.696;2023-08-07T12:46:04;29.59;32.05
73141;SHT31;61339;50.558;4.696;2023-08-07T12:48:30;28.32;34.47
73141;SHT31;61339;50.558;4.696;2023-08-07T12:50:55;27.37;35.93
73141;SHT31;61339;50.558;4.696;2023-08-07T12:53:21;26.89;36.81
73141;SHT31;61339;50.558;4.696;2023-08-07T12:55:46;27.11;36.89
73141;SHT31;61339;50.558;4.696;2023-08-07T12:58:11;29.74;32.98
73141;SHT31;61339;50.558;4.696;2023-08-07T13:00:37;30.85;31.71
73141;SHT31;61339;50.558;4.696;2023-08-07T13:03:02;30.45;31.43
73141;SHT31;61339;50.558;4.696;2023-08-07T13:05:28;29.10;34.28
73141;SHT31;61339;50.558;4.696;2023-08-07T13:07:56;27.86;35.23
73141;SHT31;61339;50.558;4.696;2023-08-07T13:10:23;26.89;36.36
73141;SHT31;61339;50.558;4.696;2023-08-07T13:12:49;26.31;37.42
73141;SHT31;61339;50.558;4.696;2023-08-07T13:15:16;26.01;38.58
73141;SHT31;61339;50.558;4.696;2023-08-07T13:17:42;25.77;39.02
73141;SHT31;61339;50.558;4.696;2023-08-07T13:20:10;25.57;38.97
73141;SHT31;61339;50.558;4.696;2023-08-07T13:22:36;25.49;39.25
73141;SHT31;61339;50.558;4.696;2023-08-07T13:25:03;25.56;40.31
73141;SHT31;61339;50.558;4.696;2023-08-07T13:27:32;25.59;40.76
73141;SHT31;61339;50.558;4.696;2023-08-07T13:29:57;25.51;41.09
73141;SHT31;61339;50.558;4.696;2023-08-07T13:32:23;25.40;41.34
73141;SHT31;61339;50.558;4.696;2023-08-07T13:34:48;25.25;41.20
73141;SHT31;61339;50.558;4.696;2023-08-07T13:37:14;25.09;40.77
73141;SHT31;61339;50.558;4.696;2023-08-07T13:39:41;25.19;40.73
73141;SHT31;61339;50.558;4.696;2023-08-07T13:42:07;25.49;40.81
73141;SHT31;61339;50.558;4.696;2023-08-07T13:44:33;25.65;39.15
73141;SHT31;61339;50.558;4.696;2023-08-07T13:46:58;25.65;40.53
73141;SHT31;61339;50.558;4.696;2023-08-07T13:49:24;25.57;40.77
73141;SHT31;61339;50.558;4.696;2023-08-07T13:51:50;25.49;39.28
73141;SHT31;61339;50.558;4.696;2023-08-07T13:54:16;25.30;40.15
73141;SHT31;61339;50.558;4.696;2023-08-07T13:56:41;25.39;40.38
73141;SHT31;61339;50.558;4.696;2023-08-07T13:59:07;25.49;40.58
73141;SHT31;61339;50.558;4.696;2023-08-07T14:01:34;25.43;40.83
73141;SHT31;61339;50.558;4.696;2023-08-07T14:04:01;25.36;40.81
73141;SHT31;61339;50.558;4.696;2023-08-07T14:06:26;25.32;40.82
73141;SHT31;61339;50.558;4.696;2023-08-07T14:08:52;25.29;40.86
73141;SHT31;61339;50.558;4.696;2023-08-07T14:11:17;25.33;41.10
73141;SHT31;61339;50.558;4.696;2023-08-07T14:13:44;25.42;41.19
73141;SHT31;61339;50.558;4.696;2023-08-07T14:16:11;25.47;39.10
73141;SHT31;61339;50.558;4.696;2023-08-07T14:18:36;25.26;38.19
73141;SHT31;61339;50.558;4.696;2023-08-07T14:21:01;25.20;38.57
73141;SHT31;61339;50.558;4.696;2023-08-07T14:23:27;25.16;39.67
73141;SHT31;61339;50.558;4.696;2023-08-07T14:25:52;24.92;39.99
73141;SHT31;61339;50.558;4.696;2023-08-07T14:28:18;24.74;41.79
73141;SHT31;61339;50.558;4.696;2023-08-07T14:31:54;24.61;40.38
73141;SHT31;61339;50.558;4.696;2023-08-07T14:34:19;24.51;40.66
73141;SHT31;61339;50.558;4.696;2023-08-07T14:36:45;24.39;40.18
73141;SHT31;61339;50.558;4.696;2023-08-07T14:39:10;24.27;40.90
73141;SHT31;61339;50.558;4.696;2023-08-07T14:41:35;24.12;41.93
73141;SHT31;61339;50.558;4.696;2023-08-07T14:44:01;23.89;42.60
73141;SHT31;61339;50.558;4.696;2023-08-07T14:46:27;23.61;43.25
73141;SHT31;61339;50.558;4.696;2023-08-07T14:48:52;23.44;43.66
73141;SHT31;61339;50.558;4.696;2023-08-07T14:51:17;23.55;43.64
73141;SHT31;61339;50.558;4.696;2023-08-07T14:53:43;23.58;43.62
73141;SHT31;61339;50.558;4.696;2023-08-07T14:56:08;23.51;42.99
73141;SHT31;61339;50.558;4.696;2023-08-07T14:58:34;23.47;43.77
73141;SHT31;61339;50.558;4.696;2023-08-07T15:00:59;23.58;44.19
73141;SHT31;61339;50.558;4.696;2023-08-07T15:03:25;23.71;43.53
73141;SHT31;61339;50.558;4.696;2023-08-07T15:05:50;23.76;43.61
73141;SHT31;61339;50.558;4.696;2023-08-07T15:08:16;23.69;44.23
73141;SHT31;61339;50.558;4.696;2023-08-07T15:10:41;23.59;43.61
73141;SHT31;61339;50.558;4.696;2023-08-07T15:13:06;23.50;43.86
73141;SHT31;61339;50.558;4.696;2023-08-07T15:15:32;23.51;44.08
73141;SHT31;61339;50.558;4.696;2023-08-07T15:17:58;23.57;44.38
73141;SHT31;61339;50.558;4.696;2023-08-07T15:20:25;23.52;44.20
73141;SHT31;61339;50.558;4.696;2023-08-07T15:22:50;23.50;43.73
73141;SHT31;61339;50.558;4.696;2023-08-07T15:25:16;23.48;43.97
73141;SHT31;61339;50.558;4.696;2023-08-07T15:27:42;23.44;44.26
73141;SHT31;61339;50.558;4.696;2023-08-07T15:30:08;23.35;43.89